Time;durP1;ratioP1;P1;durP2;ratioP2;P2;SDS_P1;SDS_P2;PMS_P1;PMS_P2;Temp;Humidity;BMP_temperature;BMP_pressure;BME280_temperature;BME280_humidity;BME280_pressure;Samples;Min_cycle;Max_cycle;Signal;HPM_P1;HPM_P2
2023/04/27 00:01:30;;;;;;;5.90;3.20;;;;;;;-145.69;100.00;52531.53;5095479;28;20275;-81
2023/04/27 00:03:57;;;;;;;6.70;3.60;;;;;;;-145.69;100.00;52529.53;5094797;28;20237;-81
2023/04/27 00:06:25;;;;;;;9.13;3.63;;;;;;;-145.69;100.00;52527.56;5095232;28;20212;-81
2023/04/27 00:08:53;;;;;;;6.73;3.73;;;;;;;-145.69;100.00;52519.63;5094674;28;20194;-81
2023/04/27 00:11:21;;;;;;;9.43;3.50;;;;;;;-145.69;100.00;52527.56;5094826;28;20206;-81
2023/04/27 00:13:48;;;;;;;10.70;3.57;;;;;;;-145.69;100.00;52533.50;5095189;28;20206;-80
2023/04/27 00:16:15;;;;;;;6.87;3.67;;;;;;;-145.69;100.00;52543.41;5094879;28;20198;-80
2023/04/27 00:18:42;;;;;;;8.70;3.20;;;;;;;-145.69;100.00;52519.63;5093917;28;20198;-81
2023/04/27 00:21:08;;;;;;;12.47;4.00;;;;;;;-145.69;100.00;52513.69;5094739;28;20205;-80
2023/04/27 00:23:35;;;;;;;12.00;3.50;;;;;;;-145.69;100.00;52513.69;5094568;28;20198;-80
2023/04/27 00:26:04;;;;;;;8.07;3.63;;;;;;;-145.69;100.00;52531.53;5094670;28;20210;-80
2023/04/27 00:28:30;;;;;;;8.50;4.00;;;;;;;-145.69;100.00;52531.53;5094814;28;20193;-79
2023/04/27 00:30:57;;;;;;;11.80;3.63;;;;;;;-145.69;100.00;52539.44;5094606;28;20656;-80
2023/04/27 00:33:23;;;;;;;7.93;3.70;;;;;;;-145.69;100.00;52527.56;5094284;28;20232;-80
2023/04/27 00:35:50;;;;;;;7.73;3.27;;;;;;;-145.69;100.00;52519.63;5094623;28;20198;-80
2023/04/27 00:38:16;;;;;;;8.73;3.23;;;;;;;-145.69;100.00;52523.59;5094086;28;20380;-80
2023/04/27 00:40:43;;;;;;;6.67;3.13;;;;;;;-145.69;100.00;52541.44;5094465;28;20198;-80
2023/04/27 00:43:10;;;;;;;5.37;3.20;;;;;;;-145.69;100.00;52517.66;5094230;28;20308;-81
2023/04/27 00:45:42;;;;;;;10.03;3.83;;;;;;;-145.69;100.00;52507.75;5094362;28;20209;-80
2023/04/27 00:48:08;;;;;;;10.40;3.37;;;;;;;-145.69;100.00;52575.09;5094053;28;20365;-80
2023/04/27 00:50:37;;;;;;;7.23;3.10;;;;;;;-145.69;100.00;52547.38;5093989;28;20217;-80
2023/04/27 00:53:05;;;;;;;12.13;4.03;;;;;;;-145.69;100.00;52533.50;5094103;28;20622;-80
2023/04/27 00:55:31;;;;;;;6.97;3.20;;;;;;;-145.69;100.00;52527.56;5093957;28;20552;-80
2023/04/27 00:57:58;;;;;;;9.33;3.77;;;;;;;-145.69;100.00;52549.34;5094303;28;20198;-81
2023/04/27 01:00:26;;;;;;;11.70;3.60;;;;;;;-145.69;100.00;52529.53;5094259;28;20198;-81
2023/04/27 01:02:53;;;;;;;7.00;3.50;;;;;;;-145.69;100.00;52545.38;5093921;28;20209;-82
2023/04/27 01:05:20;;;;;;;7.80;3.77;;;;;;;-145.69;100.00;52567.16;5093906;28;20262;-80
2023/04/27 01:07:47;;;;;;;9.93;3.83;;;;;;;-145.69;100.00;52551.31;5093696;28;20212;-80
2023/04/27 01:10:13;;;;;;;6.53;3.53;;;;;;;-145.69;100.00;52547.38;5093844;28;20198;-80
2023/04/27 01:12:43;;;;;;;6.67;3.47;;;;;;;-145.69;100.00;52523.59;5093611;28;20226;-80
2023/04/27 01:15:10;;;;;;;10.23;4.00;;;;;;;-145.69;100.00;52533.50;5093580;28;20572;-80
2023/04/27 01:17:38;;;;;;;5.70;3.50;;;;;;;-145.69;100.00;52523.59;5092779;28;20197;-80
2023/04/27 01:20:09;;;;;;;6.70;3.40;;;;;;;-145.69;100.00;52537.47;5093529;28;20202;-80
2023/04/27 01:22:36;;;;;;;10.37;4.03;;;;;;;-145.69;100.00;52501.81;5093317;28;20202;-82
2023/04/27 01:25:06;;;;;;;7.50;3.90;;;;;;;-145.69;100.00;52563.22;5093568;28;20202;-80
2023/04/27 01:27:33;;;;;;;7.47;3.63;;;;;;;-145.69;100.00;52549.34;5093237;28;20300;-80
2023/04/27 01:30:03;;;;;;;8.13;3.63;;;;;;;-145.69;100.00;52539.44;5092872;28;20194;-80
2023/04/27 01:32:29;;;;;;;8.07;3.63;;;;;;;-145.69;100.00;52543.41;5091424;28;20297;-82
2023/04/27 01:34:56;;;;;;;5.77;3.10;;;;;;;-145.69;100.00;52541.44;5093678;28;20213;-80
2023/04/27 01:37:22;;;;;;;6.17;3.23;;;;;;;-145.69;100.00;52525.59;5093372;28;20194;-80
2023/04/27 01:39:48;;;;;;;9.23;3.57;;;;;;;-145.69;100.00;52533.50;5093061;28;20190;-82
2023/04/27 01:42:16;;;;;;;7.97;3.67;;;;;;;-145.69;100.00;52519.63;5093446;28;20209;-80
2023/04/27 01:44:46;;;;;;;6.87;3.40;;;;;;;-145.69;100.00;52543.41;5093291;28;20252;-80
2023/04/27 01:47:15;;;;;;;6.70;3.40;;;;;;;-145.69;100.00;52551.31;5093019;28;20262;-82
2023/04/27 01:49:41;;;;;;;7.37;3.50;;;;;;;-145.69;100.00;52523.59;5093492;28;20198;-80
2023/04/27 01:52:08;;;;;;;7.80;3.97;;;;;;;-145.69;100.00;52511.72;5092930;28;20313;-80
2023/04/27 01:54:35;;;;;;;7.30;3.47;;;;;;;-145.69;100.00;52523.59;5093222;28;20209;-80
2023/04/27 01:57:02;;;;;;;6.97;3.40;;;;;;;-145.69;100.00;52527.56;5093073;28;20227;-80
2023/04/27 01:59:30;;;;;;;7.07;2.93;;;;;;;-145.69;100.00;52523.59;5093087;28;20208;-80
2023/04/27 02:01:56;;;;;;;9.63;3.93;;;;;;;-145.69;100.00;52549.34;5093123;28;20293;-80
2023/04/27 02:04:23;;;;;;;6.93;3.20;;;;;;;-145.69;100.00;52503.81;5092838;28;20230;-80
2023/04/27 02:06:49;;;;;;;6.10;3.60;;;;;;;-145.69;100.00;52567.16;5093624;28;20198;-81
2023/04/27 02:09:16;;;;;;;8.07;3.30;;;;;;;-145.69;100.00;52547.38;5092522;28;20194;-81
2023/04/27 02:11:43;;;;;;;8.23;3.40;;;;;;;-145.69;100.00;52563.22;5092720;28;20252;-81
2023/04/27 02:14:09;;;;;;;12.97;3.20;;;;;;;-145.69;100.00;52575.09;5092773;28;20194;-81
2023/04/27 02:16:37;;;;;;;5.07;3.23;;;;;;;-145.69;100.00;52523.59;5092890;28;20224;-81
2023/04/27 02:19:04;;;;;;;5.30;2.73;;;;;;;-145.69;100.00;52539.44;5092496;28;20212;-81
2023/04/27 02:21:31;;;;;;;6.23;3.00;;;;;;;-145.69;100.00;52493.91;5092607;28;20676;-81
2023/04/27 02:23:58;;;;;;;8.23;3.40;;;;;;;-145.69;100.00;52523.59;5092597;28;20202;-81
2023/04/27 02:26:28;;;;;;;5.60;2.87;;;;;;;-145.69;100.00;52509.75;5092795;28;20195;-80
2023/04/27 02:28:55;;;;;;;6.97;3.10;;;;;;;-145.69;100.00;52511.72;5092553;28;20210;-81
2023/04/27 02:31:21;;;;;;;9.47;3.60;;;;;;;-145.69;100.00;52527.56;5092932;28;20206;-80
2023/04/27 02:33:49;;;;;;;6.60;3.20;;;;;;;-145.69;100.00;52523.59;5092705;28;20231;-80
2023/04/27 02:36:16;;;;;;;8.87;3.63;;;;;;;-145.69;100.00;52539.44;5092630;28;20252;-80
2023/04/27 02:38:42;;;;;;;3.30;2.50;;;;;;;-145.69;100.00;52515.69;5092411;28;20198;-81
2023/04/27 02:41:09;;;;;;;8.57;3.75;;;;;;;-145.69;100.00;52535.47;5092642;28;20429;-81
2023/04/27 02:43:35;;;;;;;10.37;3.40;;;;;;;-145.69;100.00;52527.56;5096807;28;20209;-80
2023/04/27 02:46:03;;;;;;;11.97;3.30;;;;;;;-145.69;100.00;52555.28;5096923;28;20206;-81
2023/04/27 02:48:30;;;;;;;11.10;3.47;;;;;;;-145.69;100.00;52543.41;5096667;28;20281;-80
2023/04/27 02:50:58;;;;;;;9.23;2.90;;;;;;;-145.69;100.00;52484.00;5096603;28;20193;-80
2023/04/27 02:53:24;;;;;;;4.70;2.70;;;;;;;-145.69;100.00;52517.66;5096441;28;20233;-80
2023/04/27 02:55:51;;;;;;;6.80;2.97;;;;;;;-145.69;100.00;52507.75;5096735;28;20228;-81
2023/04/27 02:58:17;;;;;;;6.80;2.90;;;;;;;-145.69;100.00;52529.53;5096704;28;20204;-81
2023/04/27 03:00:44;;;;;;;4.93;2.93;;;;;;;-145.69;100.00;52527.56;5095740;28;20198;-81
2023/04/27 03:03:12;;;;;;;9.30;2.97;;;;;;;-145.69;100.00;52515.69;5096291;28;20313;-81
2023/04/27 03:05:38;;;;;;;5.60;2.70;;;;;;;-145.69;100.00;52511.72;5096157;28;20216;-81
2023/04/27 03:08:06;;;;;;;6.60;3.33;;;;;;;-145.69;100.00;52517.66;5096342;28;20198;-80
2023/04/27 03:10:33;;;;;;;5.07;3.03;;;;;;;-145.69;100.00;52557.28;5095797;28;20286;-80
2023/04/27 03:13:02;;;;;;;11.47;3.47;;;;;;;-145.69;100.00;52511.72;5096310;28;20230;-81
2023/04/27 03:15:28;;;;;;;10.23;3.23;;;;;;;-145.69;100.00;52527.56;5096002;28;20209;-80
2023/04/27 03:17:55;;;;;;;6.27;3.00;;;;;;;-145.69;100.00;52531.53;5095620;28;20197;-80
2023/04/27 03:20:21;;;;;;;9.80;2.83;;;;;;;-145.69;100.00;52519.63;5095696;28;20783;-80
2023/04/27 03:22:48;;;;;;;6.17;3.53;;;;;;;-145.69;100.00;52529.53;5094646;28;20668;-81
2023/04/27 03:25:19;;;;;;;7.17;3.10;;;;;;;-145.69;100.00;52555.28;5095817;28;20676;-80
2023/04/27 03:27:45;;;;;;;7.70;3.30;;;;;;;-145.69;100.00;52527.56;5095849;28;20679;-81
2023/04/27 03:30:13;;;;;;;12.20;3.63;;;;;;;-145.69;100.00;52519.63;5095782;28;20198;-81
2023/04/27 03:32:39;;;;;;;6.97;3.40;;;;;;;-145.69;100.00;52515.69;5090221;28;20222;-80
2023/04/27 03:35:06;;;;;;;7.40;2.93;;;;;;;-145.69;100.00;52527.56;5095825;28;20194;-80
2023/04/27 03:37:33;;;;;;;6.40;2.67;;;;;;;-145.69;100.00;52551.31;5095628;28;20241;-80
2023/04/27 03:40:04;;;;;;;4.93;3.20;;;;;;;-145.69;100.00;52529.53;5095486;28;20293;-80
2023/04/27 03:42:34;;;;;;;5.57;2.80;;;;;;;-145.69;100.00;52519.63;5095870;28;20202;-79
2023/04/27 03:45:00;;;;;;;14.00;3.50;;;;;;;-145.69;100.00;52539.44;5095652;28;20198;-81
2023/04/27 03:47:27;;;;;;;8.87;3.90;;;;;;;-145.69;100.00;52535.47;5095409;28;20205;-81
2023/04/27 03:49:53;;;;;;;8.27;2.77;;;;;;;-145.69;100.00;52525.59;5095121;28;20556;-81
2023/04/27 03:52:22;;;;;;;5.83;2.97;;;;;;;-145.69;100.00;52509.75;5095032;28;20281;-81
2023/04/27 03:54:48;;;;;;;6.47;3.17;;;;;;;-145.69;100.00;52507.75;5095122;28;20194;-81
2023/04/27 03:57:15;;;;;;;9.17;3.27;;;;;;;-145.69;100.00;52557.28;5095411;28;20285;-80
2023/04/27 03:59:43;;;;;;;6.93;3.10;;;;;;;-145.69;100.00;52537.47;5095167;28;20206;-80
2023/04/27 04:02:10;;;;;;;6.27;2.93;;;;;;;-145.69;100.00;52499.84;5095364;28;20280;-80
2023/04/27 04:04:36;;;;;;;8.77;3.47;;;;;;;-145.69;100.00;52531.53;5094858;28;20759;-80
2023/04/27 04:07:03;;;;;;;7.53;3.47;;;;;;;-145.69;100.00;52519.63;5093713;28;20443;-80
2023/04/27 04:09:29;;;;;;;7.30;2.93;;;;;;;-145.69;100.00;52507.75;5094818;28;20198;-80
2023/04/27 04:11:56;;;;;;;6.43;2.67;;;;;;;-145.69;100.00;52529.53;5095048;28;20591;-81
2023/04/27 04:14:23;;;;;;;6.07;2.73;;;;;;;-145.69;100.00;52523.59;5094715;28;20221;-80
2023/04/27 04:16:50;;;;;;;10.40;3.13;;;;;;;-145.69;100.00;52515.69;5094741;28;20685;-81
2023/04/27 04:19:17;;;;;;;7.47;2.60;;;;;;;-145.69;100.00;52523.59;5094761;28;20194;-80
2023/04/27 04:21:43;;;;;;;5.53;2.73;;;;;;;-145.69;100.00;52497.84;5095078;28;20209;-80
2023/04/27 04:24:10;;;;;;;7.27;3.00;;;;;;;-145.69;100.00;52495.88;5094727;28;20205;-80
2023/04/27 04:26:37;;;;;;;4.63;2.80;;;;;;;-145.69;100.00;52513.69;5094585;28;20201;-81
2023/04/27 04:29:04;;;;;;;5.13;3.03;;;;;;;-145.69;100.00;52503.81;5094814;28;20206;-80
2023/04/27 04:31:32;;;;;;;5.87;3.30;;;;;;;-145.69;100.00;52539.44;5094689;28;20202;-81
2023/04/27 04:34:00;;;;;;;5.00;2.90;;;;;;;-145.69;100.00;52503.81;5094442;28;20651;-81
2023/04/27 04:36:27;;;;;;;12.10;3.47;;;;;;;-145.69;100.00;52517.66;5094807;28;20209;-81
2023/04/27 04:38:53;;;;;;;6.00;2.37;;;;;;;-145.69;100.00;52531.53;5094313;28;20201;-80
2023/04/27 04:41:22;;;;;;;5.57;2.70;;;;;;;-145.69;100.00;52531.53;5093936;28;20194;-80
2023/04/27 04:43:49;;;;;;;11.87;4.17;;;;;;;-145.69;100.00;52517.66;5094307;28;20199;-80
2023/04/27 04:46:16;;;;;;;6.23;2.90;;;;;;;-145.69;100.00;52533.50;5094015;28;20555;-80
2023/04/27 04:48:42;;;;;;;8.83;2.70;;;;;;;-145.69;100.00;52511.72;5094380;28;20201;-81
2023/04/27 04:51:10;;;;;;;10.83;4.10;;;;;;;-145.69;100.00;52511.72;5094315;28;20289;-81
2023/04/27 04:53:36;;;;;;;11.60;3.53;;;;;;;-145.69;100.00;52489.94;5093977;28;20721;-80
2023/04/27 04:56:10;;;;;;;7.13;3.00;;;;;;;-145.69;100.00;52509.75;5094064;28;20567;-80
2023/04/27 04:58:36;;;;;;;9.93;2.87;;;;;;;-145.69;100.00;52503.81;5090624;28;20194;-80
2023/04/27 05:01:03;;;;;;;6.87;2.83;;;;;;;-145.69;100.00;52503.81;5093817;28;20201;-80
2023/04/27 05:03:29;;;;;;;7.47;2.70;;;;;;;-145.69;100.00;52495.88;5093883;28;20238;-80
2023/04/27 05:05:56;;;;;;;7.47;2.53;;;;;;;-145.69;100.00;52527.56;5093242;28;20565;-80
2023/04/27 05:08:23;;;;;;;7.10;2.67;;;;;;;-145.69;100.00;52511.72;5093807;28;20198;-81
2023/04/27 05:10:50;;;;;;;6.53;2.73;;;;;;;-145.69;100.00;52501.81;5093268;28;20194;-80
2023/04/27 05:13:17;;;;;;;6.10;2.90;;;;;;;-145.69;100.00;52531.53;5093459;28;20221;-80
2023/04/27 05:15:43;;;;;;;9.17;2.87;;;;;;;-145.69;100.00;52549.34;5093582;28;20194;-80
2023/04/27 05:18:10;;;;;;;5.60;2.77;;;;;;;-145.69;100.00;52537.47;5093301;28;20198;-80
2023/04/27 05:20:36;;;;;;;7.53;2.87;;;;;;;-145.69;100.00;52507.75;5093883;28;20210;-81
2023/04/27 05:23:03;;;;;;;6.40;2.37;;;;;;;-145.69;100.00;52509.75;5093572;28;20228;-81
2023/04/27 05:25:31;;;;;;;4.53;2.80;;;;;;;-145.69;100.00;52527.56;5093642;28;20209;-82
2023/04/27 05:27:58;;;;;;;7.73;2.53;;;;;;;-145.69;100.00;52547.38;5093449;28;20194;-81
2023/04/27 05:30:27;;;;;;;3.07;1.90;;;;;;;-145.69;100.00;52503.81;5093270;28;20201;-81
2023/04/27 05:32:54;;;;;;;8.73;2.53;;;;;;;-145.69;100.00;52523.59;5085301;28;20199;-80
2023/04/27 05:35:20;;;;;;;8.47;2.97;;;;;;;-145.69;100.00;52493.91;5073333;28;20199;-81
2023/04/27 05:37:47;;;;;;;4.43;2.50;;;;;;;-145.69;100.00;52484.00;5073220;28;20203;-81
2023/04/27 05:40:15;;;;;;;7.13;2.80;;;;;;;-145.69;100.00;52460.22;5085469;28;20198;-81
2023/04/27 05:42:42;;;;;;;5.20;2.37;;;;;;;-145.69;100.00;52505.78;5093243;28;20679;-81
2023/04/27 05:45:12;;;;;;;6.07;2.40;;;;;;;-145.69;100.00;52495.88;5093191;28;20542;-82
2023/04/27 05:47:41;;;;;;;7.57;2.67;;;;;;;-145.69;100.00;52523.59;5093507;28;20202;-81
2023/04/27 05:50:09;;;;;;;6.40;2.67;;;;;;;-145.69;100.00;52497.84;5093374;28;20201;-81
2023/04/27 05:52:36;;;;;;;6.87;2.70;;;;;;;-145.69;100.00;52446.38;5093174;28;20244;-81
2023/04/27 05:55:02;;;;;;;4.00;2.43;;;;;;;-145.69;100.00;52497.84;5093122;28;20233;-81
2023/04/27 05:57:30;;;;;;;12.70;2.70;;;;;;;-145.69;100.00;52491.91;5093446;28;20210;-80
2023/04/27 06:00:00;;;;;;;11.97;2.57;;;;;;;-145.69;100.00;52484.00;5093135;28;20202;-81
2023/04/27 06:02:26;;;;;;;5.07;2.37;;;;;;;-145.69;100.00;52487.97;5092866;28;20190;-81
2023/04/27 06:04:53;;;;;;;7.63;2.30;;;;;;;-145.69;100.00;52476.06;5093025;28;20241;-81
2023/04/27 06:07:20;;;;;;;4.20;2.20;;;;;;;-145.69;100.00;52458.25;5093266;28;20201;-81
2023/04/27 06:09:46;;;;;;;4.43;2.43;;;;;;;-145.69;100.00;52472.13;5092328;28;20194;-81
2023/04/27 06:12:14;;;;;;;3.27;2.10;;;;;;;-145.69;100.00;52452.31;5092442;28;20198;-81
2023/04/27 06:14:40;;;;;;;3.33;1.90;;;;;;;-145.69;100.00;52456.28;5093038;28;20257;-81
2023/04/27 06:17:08;;;;;;;3.53;1.90;;;;;;;-145.69;100.00;52416.66;5092259;28;20647;-82
2023/04/27 06:19:35;;;;;;;7.05;2.15;;;;;;;-145.69;100.00;52456.28;5091960;28;20194;-81
2023/04/27 06:22:02;;;;;;;6.03;2.45;;;;;;;-145.69;100.00;52408.75;5092325;28;20553;-80
2023/04/27 06:24:31;;;;;;;4.38;2.28;;;;;;;-145.69;100.00;52476.06;5092815;28;20289;-81
2023/04/27 06:26:58;;;;;;;5.95;2.13;;;;;;;-145.69;100.00;52422.59;5092847;28;20190;-81
2023/04/27 06:29:24;;;;;;;6.28;2.20;;;;;;;-145.69;98.40;52430.53;5092621;28;20203;-81
2023/04/27 06:31:51;;;;;;;5.30;1.48;;;;;;;-145.69;87.89;52408.75;5092819;28;20202;-80
2023/04/27 06:34:18;;;;;;;4.28;1.85;;;;;;;-145.69;75.01;52446.38;5092780;28;20233;-82
2023/04/27 06:36:45;;;;;;;5.25;2.05;;;;;;;-145.69;79.04;52450.31;5092502;28;20595;-81
2023/04/27 06:39:11;;;;;;;2.47;1.63;;;;;;;-145.69;77.08;52448.34;5092535;28;20198;-81
2023/04/27 06:41:38;;;;;;;4.80;1.63;;;;;;;-145.69;75.79;52424.59;5092483;28;20202;-80
2023/04/27 06:44:05;;;;;;;4.45;2.13;;;;;;;-145.69;70.70;52416.66;5092754;28;20205;-81
2023/04/27 06:46:32;;;;;;;4.78;1.80;;;;;;;-145.69;72.79;52448.34;5092834;28;20209;-80
2023/04/27 06:48:58;;;;;;;11.73;2.17;;;;;;;-145.69;79.93;52448.34;5092606;28;20205;-81
2023/04/27 06:51:27;;;;;;;7.32;2.15;;;;;;;-145.69;79.00;52460.22;5092557;28;20226;-81
2023/04/27 06:53:56;;;;;;;8.65;2.10;;;;;;;-145.69;79.52;52367.16;5092489;28;20226;-81
2023/04/27 06:56:22;;;;;;;3.95;1.90;;;;;;;-145.69;79.11;52444.38;5092700;28;20288;-81
2023/04/27 06:58:49;;;;;;;7.38;2.15;;;;;;;-145.69;81.38;52416.66;5092602;28;20209;-81
2023/04/27 07:01:15;;;;;;;6.95;2.00;;;;;;;-145.69;74.03;52428.53;5092557;28;20202;-81
2023/04/27 07:03:41;;;;;;;3.55;1.67;;;;;;;-145.69;70.60;52422.59;5092303;28;20234;-80
2023/04/27 07:06:08;;;;;;;6.57;2.42;;;;;;;-145.69;79.53;52420.63;5092431;28;20202;-80
2023/04/27 07:08:36;;;;;;;5.80;2.10;;;;;;;-145.69;77.09;52442.41;5092410;28;20604;-80
2023/04/27 07:11:03;;;;;;;4.95;2.10;;;;;;;-145.69;77.28;52456.28;5091648;28;20194;-80
2023/04/27 07:13:29;;;;;;;9.63;2.08;;;;;;;-145.69;75.12;52430.53;5092162;28;20545;-81
2023/04/27 07:15:57;;;;;;;5.53;2.20;;;;;;;-145.69;74.46;52408.75;5091934;28;20203;-80
2023/04/27 07:18:24;;;;;;;4.03;2.10;;;;;;;-145.69;71.55;52448.34;5092327;28;20198;-80
2023/04/27 07:20:51;;;;;;;5.10;2.30;;;;;;;-145.69;70.59;52398.84;5092575;28;20202;-81
2023/04/27 07:23:17;;;;;;;4.05;2.45;;;;;;;-145.69;71.49;52412.69;5092351;28;20202;-80
2023/04/27 07:25:48;;;;;;;4.95;2.42;;;;;;;-145.69;73.75;52404.78;5092466;28;20217;-80
2023/04/27 07:28:14;;;;;;;5.05;2.10;;;;;;;-145.69;79.20;52412.69;5093077;28;20220;-81
2023/04/27 07:30:41;;;;;;;3.50;1.98;;;;;;;-145.69;66.81;52436.47;5096151;28;20262;-81
2023/04/27 07:33:08;;;;;;;5.25;1.95;;;;;;;-145.69;71.30;52448.34;5095869;28;20243;-80
2023/04/27 07:35:35;;;;;;;5.97;2.25;;;;;;;-145.69;71.60;52416.66;5094052;28;20229;-80
2023/04/27 07:38:02;;;;;;;6.63;2.58;;;;;;;-145.69;68.69;52412.69;5095783;28;20198;-80
2023/04/27 07:40:29;;;;;;;9.00;2.40;;;;;;;-145.69;70.20;52420.63;5095531;28;20199;-81
2023/04/27 07:42:57;;;;;;;4.13;1.60;;;;;;;-145.69;66.98;52400.81;5095674;28;20199;-81
2023/04/27 07:45:30;;;;;;;5.38;2.50;;;;;;;-145.69;64.97;52392.91;5095100;28;20194;-80
2023/04/27 07:47:59;;;;;;;6.50;2.42;;;;;;;-145.69;60.63;52420.63;5095591;28;20206;-81
2023/04/27 07:50:26;;;;;;;5.32;2.45;;;;;;;-145.69;58.31;52375.06;5095574;28;20202;-81
2023/04/27 07:52:53;;;;;;;5.20;2.42;;;;;;;-145.69;59.03;52377.06;5095479;28;20205;-81
2023/04/27 07:55:20;;;;;;;5.95;2.17;;;;;;;-145.69;56.38;52396.84;5095411;28;20230;-81
2023/04/27 07:57:46;;;;;;;6.40;2.47;;;;;;;-145.69;57.52;52381.00;5095558;28;20468;-81
2023/04/27 08:00:15;;;;;;;5.50;2.20;;;;;;;-145.69;53.39;52371.13;5093875;28;20239;-81
2023/04/27 08:02:41;;;;;;;4.85;2.20;;;;;;;-145.69;63.73;52412.69;5094440;28;20557;-81
2023/04/27 08:05:08;;;;;;;5.65;2.50;;;;;;;-145.69;55.55;52384.97;5094241;28;20229;-81
2023/04/27 08:07:35;;;;;;;4.88;2.60;;;;;;;-145.69;57.03;52388.94;5094725;28;20277;-81
2023/04/27 08:10:01;;;;;;;5.60;2.15;;;;;;;-145.69;57.00;52404.78;5095310;28;20653;-82
2023/04/27 08:12:32;;;;;;;4.75;1.92;;;;;;;-145.69;53.85;52373.09;5095221;28;20202;-79
2023/04/27 08:15:00;;;;;;;3.75;2.10;;;;;;;-145.69;50.58;52361.22;5095370;28;20226;-81
2023/04/27 08:17:28;;;;;;;6.22;2.40;;;;;;;-145.69;51.59;52369.13;5095195;28;20718;-81
2023/04/27 08:19:54;;;;;;;2.63;1.70;;;;;;;-145.69;51.12;52343.38;5095078;28;20198;-80
2023/04/27 08:22:21;;;;;;;4.82;2.60;;;;;;;-145.69;56.16;52396.84;5094634;28;20560;-80
2023/04/27 08:24:50;;;;;;;5.60;2.28;;;;;;;-145.69;60.38;52343.38;5094914;28;20288;-80
2023/04/27 08:27:19;;;;;;;4.57;2.33;;;;;;;-145.69;53.78;52379.03;5094714;28;20205;-80
2023/04/27 08:29:47;;;;;;;3.75;2.05;;;;;;;-145.69;52.84;52379.03;5094796;28;20198;-82
2023/04/27 08:32:13;;;;;;;6.68;1.83;;;;;;;-145.69;53.06;52404.78;5094175;28;20194;-81
2023/04/27 08:34:43;;;;;;;3.78;1.80;;;;;;;-145.69;57.58;52381.00;5094229;28;20260;-81
2023/04/27 08:37:10;;;;;;;6.65;2.20;;;;;;;-145.69;62.39;52388.94;5094387;28;20208;-80
2023/04/27 08:39:36;;;;;;;5.45;1.90;;;;;;;-145.69;60.45;52369.13;5099311;28;20198;-81
2023/04/27 08:42:10;;;;;;;6.03;2.20;;;;;;;-145.69;57.08;52381.00;5095889;28;20202;-81
2023/04/27 08:44:38;;;;;;;7.40;2.25;;;;;;;-145.69;60.95;52377.06;5094454;28;20212;-80
2023/04/27 08:47:05;;;;;;;4.32;2.30;;;;;;;-145.69;54.99;52363.19;5095235;28;20202;-81
2023/04/27 08:49:32;;;;;;;5.07;2.08;;;;;;;-145.69;59.21;52381.00;5094546;28;20556;-81
2023/04/27 08:52:02;;;;;;;5.45;1.98;;;;;;;-145.69;51.89;52365.16;5094395;28;20190;-81
2023/04/27 08:54:29;;;;;;;3.70;1.90;;;;;;;-145.69;46.33;52355.28;5095124;28;20692;-81
2023/04/27 08:56:56;;;;;;;4.80;1.83;;;;;;;-145.69;46.33;52367.16;5093912;28;20198;-80
2023/04/27 08:59:22;;;;;;;4.28;2.15;;;;;;;-145.69;50.87;52369.13;5093714;28;20198;-79
2023/04/27 09:01:49;;;;;;;6.05;2.00;;;;;;;-145.69;54.23;52369.13;5094002;28;20428;-79
2023/04/27 09:04:17;;;;;;;4.35;1.88;;;;;;;-145.69;55.49;52357.25;5093149;28;20307;-79
2023/04/27 09:06:43;;;;;;;8.77;1.90;;;;;;;-145.69;50.05;52345.38;5094058;28;20633;-79
2023/04/27 09:09:22;;;;;;;6.38;2.03;;;;;;;-145.69;51.84;52345.38;5093865;28;20201;-79
2023/04/27 09:11:49;;;;;;;7.30;2.38;;;;;;;-145.69;50.19;52357.25;5093608;28;20656;-79
2023/04/27 09:14:17;;;;;;;6.65;2.15;;;;;;;-145.69;51.66;52365.16;5093977;28;20222;-79
2023/04/27 09:16:44;;;;;;;5.25;2.13;;;;;;;-145.69;53.11;52353.28;5093813;28;20297;-79
2023/04/27 09:19:11;;;;;;;8.07;2.53;;;;;;;-145.69;52.84;52373.09;5093674;28;20206;-79
2023/04/27 09:21:37;;;;;;;5.07;1.80;;;;;;;-145.69;52.91;52373.09;5091680;28;20291;-79
2023/04/27 09:24:12;;;;;;;3.85;1.80;;;;;;;-145.69;56.88;52353.28;5091975;28;20194;-78
2023/04/27 09:26:39;;;;;;;6.93;1.80;;;;;;;-145.69;56.28;52339.44;5071719;28;20263;-79
2023/04/27 09:29:07;;;;;;;6.50;2.13;;;;;;;-145.69;58.73;52388.94;5081292;28;20217;-79
2023/04/27 09:31:35;;;;;;;4.78;1.90;;;;;;;-145.69;58.02;52347.34;5091751;28;20202;-79
2023/04/27 09:34:02;;;;;;;6.13;2.67;;;;;;;-145.69;63.91;52345.38;5091610;28;20550;-79
2023/04/27 09:36:31;;;;;;;9.80;2.95;;;;;;;-145.69;67.80;52381.00;5093680;28;20226;-78
2023/04/27 09:38:58;;;;;;;6.70;2.10;;;;;;;-145.69;63.11;52373.09;5080418;28;20564;-78
2023/04/27 09:41:27;;;;;;;8.00;2.22;;;;;;;-145.69;58.24;52371.13;5076274;28;20197;-78
2023/04/27 09:43:55;;;;;;;5.97;2.33;;;;;;;-145.69;69.58;52377.06;5093392;28;20220;-79
2023/04/27 09:46:22;;;;;;;4.35;1.88;;;;;;;-145.69;64.73;52390.91;5093063;28;20235;-79
2023/04/27 09:48:51;;;;;;;3.58;1.90;;;;;;;-145.69;66.12;52349.31;5093344;28;20561;-79
2023/04/27 09:51:17;;;;;;;4.85;2.20;;;;;;;-145.69;65.11;52394.88;5092822;28;20279;-78
2023/04/27 09:53:49;;;;;;;5.85;2.20;;;;;;;-145.69;64.41;52361.22;5093271;28;20601;-79
2023/04/27 09:56:31;;;;;;;4.75;2.22;;;;;;;-145.69;68.22;52396.84;5092917;28;20225;-78
2023/04/27 09:59:30;;;;;;;3.15;2.17;;;;;;;-145.69;67.12;52381.00;5093044;28;20209;-79
2023/04/27 10:02:00;;;;;;;6.20;2.30;;;;;;;-145.69;66.98;52343.38;5085011;28;20587;-79
2023/04/27 10:04:41;;;;;;;6.80;2.30;;;;;;;-145.69;65.81;52371.13;5092795;28;20226;-79
2023/04/27 10:07:11;;;;;;;4.60;1.88;;;;;;;-145.69;72.08;52373.09;5092966;28;20202;-79
2023/04/27 10:09:41;;;;;;;6.25;2.28;;;;;;;-145.69;64.36;52341.41;5092078;28;20202;-79
2023/04/27 10:12:17;;;;;;;4.55;1.73;;;;;;;-145.69;63.23;52361.22;5093204;28;20194;-79
2023/04/27 10:14:51;;;;;;;6.25;2.20;;;;;;;-145.69;61.56;52357.25;5093015;28;20691;-79
2023/04/27 10:17:19;;;;;;;3.75;1.98;;;;;;;-145.69;61.52;52361.22;5092895;28;20185;-79
2023/04/27 10:19:56;;;;;;;4.97;2.78;;;;;;;-145.69;61.73;52359.22;5092798;28;20198;-78
2023/04/27 10:22:23;;;;;;;10.88;2.15;;;;;;;-145.69;64.88;52396.84;5093296;28;20197;-79
2023/04/27 10:24:51;;;;;;;4.45;2.20;;;;;;;-145.69;61.18;52373.09;5092674;28;20198;-79
2023/04/27 10:27:21;;;;;;;4.70;2.40;;;;;;;-145.69;62.09;52367.16;5091852;28;20436;-79
2023/04/27 10:29:48;;;;;;;5.32;2.28;;;;;;;-145.69;60.34;52361.22;5092845;28;20202;-79
2023/04/27 10:32:22;;;;;;;2.95;2.00;;;;;;;-145.69;59.06;52349.31;5092479;28;20201;-78
2023/04/27 10:34:49;;;;;;;6.45;2.20;;;;;;;-145.69;57.23;52359.22;5092576;28;20619;-79
2023/04/27 10:37:16;;;;;;;9.45;2.03;;;;;;;-145.69;58.73;52381.00;5092936;28;20614;-79
2023/04/27 10:39:44;;;;;;;6.10;2.10;;;;;;;-145.69;56.67;52361.22;5092930;28;20224;-79
2023/04/27 10:42:11;;;;;;;2.90;1.40;;;;;;;-145.69;53.19;52369.13;5093329;28;20198;-78
2023/04/27 10:44:39;;;;;;;2.58;1.65;;;;;;;-145.69;50.73;52345.38;5092540;28;20286;-78
2023/04/27 10:47:16;;;;;;;1.40;0.90;;;;;;;-145.69;46.95;52329.53;5092876;28;20673;-79
2023/04/27 10:49:43;;;;;;;2.08;1.15;;;;;;;-145.69;53.75;52337.44;5092912;28;20209;-78
2023/04/27 10:52:09;;;;;;;2.90;0.90;;;;;;;-145.69;48.69;52337.44;5092495;28;20198;-79
2023/04/27 10:54:38;;;;;;;2.17;1.17;;;;;;;-145.69;45.59;52293.88;5092138;28;20198;-79
2023/04/27 10:57:06;;;;;;;2.08;1.38;;;;;;;-145.69;47.91;52353.28;5092474;28;20198;-79
2023/04/27 10:59:33;;;;;;;2.17;1.25;;;;;;;-145.69;54.41;52349.31;5092695;28;20213;-79
2023/04/27 11:02:02;;;;;;;4.90;1.58;;;;;;;-145.69;49.76;52353.28;5092489;28;20688;-79
2023/04/27 11:04:40;;;;;;;3.97;1.70;;;;;;;-145.69;47.98;52325.56;5095064;28;20618;-80
2023/04/27 11:07:07;;;;;;;3.92;1.50;;;;;;;-145.69;46.38;52309.72;5096446;28;20201;-79
2023/04/27 11:09:37;;;;;;;6.88;1.60;;;;;;;-145.69;48.07;52309.72;5096010;28;20198;-79
2023/04/27 11:12:06;;;;;;;5.80;1.50;;;;;;;-145.69;48.73;52359.22;5095069;28;20206;-79
2023/04/27 11:14:34;;;;;;;3.70;1.30;;;;;;;-145.69;47.30;52353.28;5096240;28;20202;-78